createdAt,value
2018-03-06T00:01:13.648Z,99020.88
2018-03-06T00:03:48.707Z,99016.72
2018-03-06T00:06:23.784Z,99012.59
2018-03-06T00:08:58.966Z,99012.52
2018-03-06T00:11:34.759Z,99019.61
2018-03-06T00:14:09.738Z,99010.48
2018-03-06T00:16:44.687Z,99015.40
2018-03-06T00:19:19.955Z,99007.03
2018-03-06T00:21:55.238Z,99006.77
2018-03-06T00:24:30.738Z,99002.13
2018-03-06T00:27:05.616Z,98989.17
2018-03-06T00:29:41.098Z,98987.55
2018-03-06T00:32:16.201Z,98987.91
2018-03-06T00:34:51.758Z,98985.98
2018-03-06T00:37:26.962Z,98977.75
2018-03-06T00:40:02.194Z,98974.83
2018-03-06T00:42:37.719Z,98969.20
2018-03-06T00:45:12.966Z,98969.45
2018-03-06T00:47:47.861Z,98974.22
2018-03-06T00:50:22.962Z,98977.81
2018-03-06T00:52:58.205Z,98971.69
2018-03-06T00:55:33.091Z,98969.33
2018-03-06T00:58:08.291Z,98959.71
2018-03-06T01:00:43.122Z,98955.78
2018-03-06T01:03:17.907Z,98957.05
2018-03-06T01:05:53.092Z,98955.05
2018-03-06T01:08:28.801Z,98961.47
2018-03-06T01:11:03.745Z,98948.13
2018-03-06T01:13:38.599Z,98954.69
2018-03-06T01:16:14.346Z,98942.33
2018-03-06T01:18:49.228Z,98951.82
2018-03-06T01:21:24.535Z,98942.23
2018-03-06T01:23:59.613Z,98947.63
2018-03-06T01:26:35.056Z,98959.83
2018-03-06T01:29:10.767Z,98954.86
2018-03-06T01:31:45.946Z,98952.70
2018-03-06T01:34:21.046Z,98953.78
2018-03-06T01:36:56.334Z,98958.88
2018-03-06T01:39:31.139Z,98946.26
2018-03-06T01:42:06.461Z,98935.94
2018-03-06T01:44:41.962Z,98926.73
2018-03-06T01:47:16.970Z,98916.52
2018-03-06T01:49:52.029Z,98912.33
2018-03-06T01:52:27.014Z,98900.97
2018-03-06T01:55:02.278Z,98899.12
2018-03-06T01:57:37.162Z,98896.06
2018-03-06T02:00:12.316Z,98900.99
2018-03-06T02:02:47.114Z,98902.76
2018-03-06T02:05:23.735Z,98902.34
2018-03-06T02:07:59.127Z,98903.62
2018-03-06T02:10:34.119Z,98909.02
2018-03-06T02:13:10.171Z,98902.09
2018-03-06T02:15:45.132Z,98894.42
2018-03-06T02:18:20.167Z,98890.20
2018-03-06T02:20:55.243Z,98889.97
2018-03-06T02:23:30.109Z,98900.29
2018-03-06T02:26:06.077Z,98897.20
2018-03-06T02:28:41.263Z,98893.91
2018-03-06T02:31:16.387Z,98897.84
2018-03-06T02:33:51.573Z,98897.86
2018-03-06T02:36:27.139Z,98898.95
2018-03-06T02:39:02.214Z,98901.69
2018-03-06T02:41:37.170Z,98909.09
2018-03-06T02:44:12.987Z,98910.70
2018-03-06T02:46:48.169Z,98912.03
2018-03-06T02:49:23.323Z,98911.05
2018-03-06T02:51:58.490Z,98910.17
2018-03-06T02:54:33.350Z,98904.73
2018-03-06T02:57:08.252Z,98898.00
2018-03-06T02:59:43.204Z,98895.03
2018-03-06T03:02:18.352Z,98896.92
2018-03-06T03:04:53.410Z,98885.82
2018-03-06T03:07:28.682Z,98888.30
2018-03-06T03:10:04.146Z,98889.63
2018-03-06T03:12:39.354Z,98889.13
2018-03-06T03:15:14.626Z,98886.54
2018-03-06T03:17:50.246Z,98885.21
2018-03-06T03:20:25.370Z,98889.94
2018-03-06T03:23:00.527Z,98884.50
2018-03-06T03:25:35.247Z,98883.34
2018-03-06T03:28:10.838Z,98879.52
2018-03-06T03:30:45.611Z,98880.73
2018-03-06T03:33:20.788Z,98879.97
2018-03-06T03:35:55.350Z,98877.70
2018-03-06T03:38:30.267Z,98877.23
2018-03-06T03:41:05.358Z,98880.59
2018-03-06T03:43:40.271Z,98880.04
2018-03-06T03:46:15.424Z,98873.37
2018-03-06T03:48:50.414Z,98876.55
2018-03-06T03:51:25.554Z,98875.03
2018-03-06T03:54:00.534Z,98868.86
2018-03-06T03:56:36.190Z,98866.52
2018-03-06T03:59:11.258Z,98863.13
2018-03-06T04:01:46.294Z,98866.12
2018-03-06T04:04:21.462Z,98859.20
2018-03-06T04:06:56.623Z,98859.91
2018-03-06T04:09:31.835Z,98863.12
2018-03-06T04:12:06.899Z,98865.00
2018-03-06T04:14:42.263Z,98857.56
2018-03-06T04:17:17.351Z,98858.52
2018-03-06T04:19:52.598Z,98847.00
2018-03-06T04:22:28.310Z,98844.53
2018-03-06T04:25:03.571Z,98837.50
2018-03-06T04:27:39.746Z,98833.77
2018-03-06T04:30:14.659Z,98829.59
2018-03-06T04:32:49.526Z,98828.36
2018-03-06T04:35:25.146Z,98824.91
2018-03-06T04:38:01.102Z,98830.59
2018-03-06T04:40:36.210Z,98838.86
2018-03-06T04:43:12.002Z,98836.14
2018-03-06T04:45:47.354Z,98827.56
2018-03-06T04:48:22.436Z,98834.41
2018-03-06T04:50:58.865Z,98836.73
2018-03-06T04:53:34.427Z,98838.98
2018-03-06T04:56:09.839Z,98837.38
2018-03-06T04:58:45.336Z,98835.70
2018-03-06T05:01:20.359Z,98841.56
2018-03-06T05:03:55.498Z,98838.48
2018-03-06T05:06:30.545Z,98831.34
2018-03-06T05:09:05.087Z,98831.60
2018-03-06T05:11:40.464Z,98833.36
2018-03-06T05:14:15.456Z,98830.73
2018-03-06T05:16:50.604Z,98830.55
2018-03-06T05:19:25.758Z,98830.88
2018-03-06T05:22:01.775Z,98824.35
2018-03-06T05:24:36.654Z,98821.77
2018-03-06T05:27:12.026Z,98820.41
2018-03-06T05:29:47.287Z,98812.86
2018-03-06T05:32:22.487Z,98817.36
2018-03-06T05:34:59.221Z,98809.00
2018-03-06T05:37:33.759Z,98819.59
2018-03-06T05:40:09.063Z,98825.67
2018-03-06T05:42:44.651Z,98816.47
2018-03-06T05:45:19.992Z,98820.00
2018-03-06T05:47:56.079Z,98826.17
2018-03-06T05:50:31.510Z,98820.16
2018-03-06T05:53:06.832Z,98826.06
2018-03-06T05:55:42.026Z,98834.89
2018-03-06T05:58:17.702Z,98839.74
2018-03-06T06:00:52.687Z,98835.05
2018-03-06T06:03:27.648Z,98830.33
2018-03-06T06:06:02.851Z,98832.27
2018-03-06T06:08:37.729Z,98831.41
2018-03-06T06:11:12.806Z,98830.33
2018-03-06T06:13:47.838Z,98829.34
2018-03-06T06:16:23.386Z,98840.98
2018-03-06T06:18:58.930Z,98836.94
2018-03-06T06:21:34.588Z,98840.61
2018-03-06T06:24:09.524Z,98842.13
2018-03-06T06:26:43.876Z,98842.39
2018-03-06T06:29:18.902Z,98839.43
2018-03-06T06:31:54.433Z,98834.75
2018-03-06T06:34:29.582Z,98836.91
2018-03-06T06:37:04.842Z,98840.00
2018-03-06T06:39:39.695Z,98835.49
2018-03-06T06:42:14.863Z,98843.70
2018-03-06T06:44:49.826Z,98843.05
2018-03-06T06:47:24.849Z,98845.71
2018-03-06T06:49:59.802Z,98847.13
2018-03-06T06:52:34.767Z,98849.08
2018-03-06T06:55:10.236Z,98848.58
2018-03-06T06:57:45.142Z,98843.23
2018-03-06T07:00:20.142Z,98843.72
2018-03-06T07:02:56.054Z,98847.80
2018-03-06T07:05:31.446Z,98847.52
2018-03-06T07:08:06.674Z,98849.70
2018-03-06T07:10:41.643Z,98847.08
2018-03-06T07:13:16.988Z,98847.45
2018-03-06T07:15:51.917Z,98851.63
2018-03-06T07:18:27.102Z,98846.37
2018-03-06T07:21:02.054Z,98849.05
2018-03-06T07:23:36.898Z,98849.36
2018-03-06T07:26:12.222Z,98846.53
2018-03-06T07:28:47.754Z,98843.75
2018-03-06T07:31:22.747Z,98850.61
2018-03-06T07:33:58.803Z,98854.88
2018-03-06T07:36:33.895Z,98846.92
2018-03-06T07:39:08.762Z,98844.20
2018-03-06T07:41:43.781Z,98842.41
2018-03-06T07:44:18.779Z,98836.13
2018-03-06T07:46:53.788Z,98827.97
2018-03-06T07:49:28.709Z,98832.33
2018-03-06T07:52:04.055Z,98832.70
2018-03-06T07:54:38.983Z,98833.67
2018-03-06T07:57:14.088Z,98835.20
2018-03-06T07:59:49.302Z,98827.77
2018-03-06T08:02:24.699Z,98833.22
2018-03-06T08:04:59.726Z,98836.48
2018-03-06T08:07:34.744Z,98839.20
2018-03-06T08:10:09.143Z,98833.12
2018-03-06T08:12:43.863Z,98843.60
2018-03-06T08:15:18.914Z,98841.75
2018-03-06T08:17:53.837Z,98843.01
2018-03-06T08:20:28.882Z,98839.17
2018-03-06T08:23:04.142Z,98849.50
2018-03-06T08:25:39.647Z,98844.32
2018-03-06T08:28:15.072Z,98839.45
2018-03-06T08:30:50.013Z,98845.20
2018-03-06T08:33:24.847Z,98841.42
2018-03-06T08:35:59.985Z,98841.59
2018-03-06T08:38:35.325Z,98839.69
2018-03-06T08:41:10.266Z,98825.66
2018-03-06T08:43:45.704Z,98827.34
2018-03-06T08:46:20.901Z,98820.24
2018-03-06T08:48:56.025Z,98825.83
2018-03-06T08:51:31.044Z,98827.66
2018-03-06T08:54:06.191Z,98822.00
2018-03-06T08:56:41.855Z,98830.24
2018-03-06T08:59:16.925Z,98820.45
2018-03-06T09:01:51.922Z,98825.59
2018-03-06T09:04:26.994Z,98825.53
2018-03-06T09:07:01.158Z,98820.59
2018-03-06T09:09:36.450Z,98821.56
2018-03-06T09:12:11.648Z,98821.73
2018-03-06T09:14:47.002Z,98824.81
2018-03-06T09:17:21.974Z,98822.48
2018-03-06T09:19:57.090Z,98817.64
2018-03-06T09:22:32.665Z,98812.81
2018-03-06T09:25:08.220Z,98817.52
2018-03-06T09:27:43.090Z,98819.25
2018-03-06T09:30:18.095Z,98809.30
2018-03-06T09:32:53.080Z,98808.97
2018-03-06T09:35:27.934Z,98805.34
2018-03-06T09:38:02.943Z,98793.78
2018-03-06T09:40:37.996Z,98794.43
2018-03-06T09:43:13.114Z,98792.16
2018-03-06T09:45:48.202Z,98785.76
2018-03-06T09:48:23.235Z,98787.43
2018-03-06T09:50:59.391Z,98783.00
2018-03-06T09:53:34.427Z,98775.58
2018-03-06T09:56:09.479Z,98781.00
2018-03-06T09:58:44.916Z,98774.28
2018-03-06T10:01:20.046Z,98775.61
2018-03-06T10:03:55.200Z,98773.20
2018-03-06T10:06:30.408Z,98769.86
2018-03-06T10:09:05.789Z,98769.33
2018-03-06T10:11:41.050Z,98769.84
2018-03-06T10:14:15.906Z,98765.99
2018-03-06T10:16:51.313Z,98760.84
2018-03-06T10:19:26.048Z,98751.34
2018-03-06T10:22:01.311Z,98759.48
2018-03-06T10:24:36.267Z,98760.59
2018-03-06T10:27:11.459Z,98759.41
2018-03-06T10:29:46.251Z,98757.56
2018-03-06T10:32:21.247Z,98756.98
2018-03-06T10:34:55.618Z,98747.72
2018-03-06T10:37:30.354Z,98753.98
2018-03-06T10:40:04.992Z,98754.16
2018-03-06T10:42:40.259Z,98750.59
2018-03-06T10:45:15.348Z,98745.13
2018-03-06T10:47:50.650Z,98741.88
2018-03-06T10:50:26.179Z,98738.77
2018-03-06T10:53:01.264Z,98745.76
2018-03-06T10:55:36.228Z,98742.55
2018-03-06T10:58:11.233Z,98734.55
2018-03-06T11:00:47.108Z,98733.06
2018-03-06T11:03:23.194Z,98731.88
2018-03-06T11:05:59.578Z,98732.38
2018-03-06T11:08:34.326Z,98737.70
2018-03-06T11:11:09.462Z,98730.88
2018-03-06T11:13:44.150Z,98730.47
2018-03-06T11:16:19.222Z,98736.67
2018-03-06T11:18:53.978Z,98729.50
2018-03-06T11:21:29.322Z,98727.77
2018-03-06T11:24:04.296Z,98728.42
2018-03-06T11:26:39.239Z,98731.11
2018-03-06T11:29:14.479Z,98732.98
2018-03-06T11:31:49.542Z,98731.28
2018-03-06T11:34:25.141Z,98730.95
2018-03-06T11:37:00.702Z,98730.13
2018-03-06T11:39:35.678Z,98731.62
2018-03-06T11:42:10.834Z,98734.43
2018-03-06T11:44:46.263Z,98728.98
2018-03-06T11:47:21.550Z,98717.12
2018-03-06T11:49:56.646Z,98722.38
2018-03-06T11:52:32.183Z,98715.31
2018-03-06T11:55:07.591Z,98715.50
2018-03-06T11:57:42.399Z,98717.55
2018-03-06T12:00:17.330Z,98720.85
2018-03-06T12:02:51.842Z,98721.02
2018-03-06T12:05:27.547Z,98726.59
2018-03-06T12:08:01.931Z,98718.39
2018-03-06T12:10:37.315Z,98719.13
2018-03-06T12:13:12.531Z,98713.56
2018-03-06T12:15:47.483Z,98719.27
2018-03-06T12:18:22.490Z,98717.73
2018-03-06T12:20:57.438Z,98718.00
2018-03-06T12:23:32.587Z,98702.09
2018-03-06T12:26:07.646Z,98701.87
2018-03-06T12:28:42.711Z,98699.13
2018-03-06T12:31:17.506Z,98698.17
2018-03-06T12:33:52.421Z,98697.92
2018-03-06T12:36:28.372Z,98694.06
2018-03-06T12:39:03.376Z,98700.79
2018-03-06T12:41:38.388Z,98701.11
2018-03-06T12:44:13.647Z,98696.55
2018-03-06T12:46:48.490Z,98705.05
2018-03-06T12:49:23.403Z,98706.39
2018-03-06T12:51:59.768Z,98700.98
2018-03-06T12:54:35.494Z,98699.11
2018-03-06T12:57:10.457Z,98659.81
2018-03-06T12:59:45.429Z,98693.74
2018-03-06T13:02:20.616Z,98689.08
2018-03-06T13:04:55.564Z,98690.52
2018-03-06T13:07:29.968Z,98682.11
2018-03-06T13:10:04.491Z,98677.06
2018-03-06T13:12:39.654Z,98672.58
2018-03-06T13:15:14.853Z,98675.31
2018-03-06T13:17:49.927Z,98673.54
2018-03-06T13:20:25.476Z,98667.48
2018-03-06T13:23:00.847Z,98670.32
2018-03-06T13:25:35.536Z,98670.69
2018-03-06T13:28:10.686Z,98672.00
2018-03-06T13:30:45.693Z,98672.27
2018-03-06T13:33:20.702Z,98665.86
2018-03-06T13:35:55.072Z,98665.83
2018-03-06T13:38:30.074Z,98663.17
2018-03-06T13:41:05.040Z,98668.98
2018-03-06T13:43:40.406Z,98660.47
2018-03-06T13:46:15.366Z,98659.21
2018-03-06T13:48:50.335Z,98660.77
2018-03-06T13:51:25.731Z,98663.79
2018-03-06T13:54:01.086Z,98654.52
2018-03-06T13:56:36.398Z,98664.23
2018-03-06T13:59:11.882Z,98658.81
2018-03-06T14:01:46.842Z,98661.01
2018-03-06T14:04:21.906Z,98658.84
2018-03-06T14:06:56.897Z,98665.64
2018-03-06T14:09:32.034Z,98664.67
2018-03-06T14:12:07.014Z,98662.61
2018-03-06T14:14:42.594Z,98656.78
2018-03-06T14:17:17.538Z,98656.20
2018-03-06T14:19:52.606Z,98659.37
2018-03-06T14:22:27.532Z,98663.75
2018-03-06T14:25:02.236Z,98658.72
2018-03-06T14:27:37.698Z,98656.20
2018-03-06T14:30:12.813Z,98649.16
2018-03-06T14:32:47.865Z,98645.53
2018-03-06T14:35:23.047Z,98647.09
2018-03-06T14:37:59.615Z,98652.53
2018-03-06T14:40:34.182Z,98643.83
2018-03-06T14:43:08.850Z,98649.84
2018-03-06T14:45:43.761Z,98643.22
2018-03-06T14:48:18.850Z,98650.23
2018-03-06T14:50:53.675Z,98652.02
2018-03-06T14:53:28.730Z,98644.00
2018-03-06T14:56:03.740Z,98648.80
2018-03-06T14:58:38.686Z,98651.84
2018-03-06T15:01:14.009Z,98645.95
2018-03-06T15:03:48.987Z,98644.47
2018-03-06T15:06:24.203Z,98648.96
2018-03-06T15:09:00.223Z,98649.48
2018-03-06T15:11:35.214Z,98646.11
2018-03-06T15:14:10.219Z,98657.27
2018-03-06T15:16:44.847Z,98659.77
2018-03-06T15:19:19.852Z,98654.41
2018-03-06T15:21:55.244Z,98650.28
2018-03-06T15:24:30.231Z,98664.16
2018-03-06T15:27:04.911Z,98662.47
2018-03-06T15:29:39.927Z,98664.64
2018-03-06T15:32:15.126Z,98665.58
2018-03-06T15:34:50.275Z,98665.72
2018-03-06T15:37:25.667Z,98666.61
2018-03-06T15:40:00.810Z,98672.17
2018-03-06T15:42:35.937Z,98664.17
2018-03-06T15:45:11.089Z,98670.48
2018-03-06T15:47:45.822Z,98668.21
2018-03-06T15:50:20.939Z,98671.09
2018-03-06T15:52:56.022Z,98672.77
2018-03-06T15:55:30.834Z,98672.79
2018-03-06T15:58:06.097Z,98675.14
2018-03-06T16:00:41.275Z,98672.25
2018-03-06T16:03:16.286Z,98674.58
2018-03-06T16:05:51.865Z,98682.55
2018-03-06T16:08:26.735Z,98677.25
2018-03-06T16:11:01.233Z,98676.48
2018-03-06T16:13:36.110Z,98678.00
2018-03-06T16:16:10.446Z,98683.67
2018-03-06T16:18:45.599Z,98683.56
2018-03-06T16:21:20.613Z,98678.67
2018-03-06T16:23:55.838Z,98685.81
2018-03-06T16:26:30.889Z,98685.95
2018-03-06T16:29:06.155Z,98692.52
2018-03-06T16:31:40.964Z,98700.66
2018-03-06T16:34:16.242Z,98686.70
2018-03-06T16:36:51.328Z,98687.59
2018-03-06T16:39:26.388Z,98681.87
2018-03-06T16:42:01.494Z,98687.64
2018-03-06T16:44:37.137Z,98691.72
2018-03-06T16:47:12.666Z,98687.82
2018-03-06T16:49:47.240Z,98691.33
2018-03-06T16:52:22.811Z,98699.69
2018-03-06T16:54:58.076Z,98702.58
2018-03-06T16:57:33.086Z,98704.66
2018-03-06T17:00:08.162Z,98711.71
2018-03-06T17:02:43.046Z,98714.92
2018-03-06T17:05:17.934Z,98716.01
2018-03-06T17:07:53.027Z,98724.67
2018-03-06T17:10:28.202Z,98724.06
2018-03-06T17:13:03.675Z,98724.38
2018-03-06T17:15:39.022Z,98734.08
2018-03-06T17:18:14.362Z,98727.75
2018-03-06T17:20:49.242Z,98727.16
2018-03-06T17:23:24.455Z,98730.92
2018-03-06T17:26:00.579Z,98711.95
2018-03-06T17:28:36.065Z,98732.48
2018-03-06T17:31:11.067Z,98729.19
2018-03-06T17:33:45.522Z,98737.72
2018-03-06T17:36:20.462Z,98741.42
2018-03-06T17:38:55.628Z,98737.43
2018-03-06T17:41:31.047Z,98745.30
2018-03-06T17:44:06.038Z,98743.73
2018-03-06T17:46:41.105Z,98739.66
2018-03-06T17:49:16.439Z,98739.53
2018-03-06T17:51:52.538Z,98747.41
2018-03-06T17:54:28.234Z,98747.03
2018-03-06T17:57:03.031Z,98749.58
2018-03-06T17:59:37.626Z,98758.27
2018-03-06T18:02:13.078Z,98761.37
2018-03-06T18:04:48.108Z,98767.55
2018-03-06T18:07:23.138Z,98759.59
2018-03-06T18:09:58.354Z,98763.00
2018-03-06T18:12:33.631Z,98765.87
2018-03-06T18:15:08.312Z,98767.31
2018-03-06T18:17:43.327Z,98767.02
2018-03-06T18:20:19.102Z,98768.88
2018-03-06T18:22:54.290Z,98766.39
2018-03-06T18:25:29.269Z,98770.75
2018-03-06T18:28:04.221Z,98772.31
2018-03-06T18:30:39.235Z,98774.11
2018-03-06T18:33:13.500Z,98772.22
2018-03-06T18:35:48.751Z,98774.63
2018-03-06T18:38:23.650Z,98775.88
2018-03-06T18:40:58.370Z,98770.80
2018-03-06T18:43:33.502Z,98772.41
2018-03-06T18:46:08.534Z,98772.61
2018-03-06T18:48:43.575Z,98764.47
2018-03-06T18:51:18.270Z,98776.40
2018-03-06T18:53:53.403Z,98769.52
2018-03-06T18:56:28.468Z,98767.98
2018-03-06T18:59:03.716Z,98769.41
2018-03-06T19:02:15.547Z,98773.86
2018-03-06T19:05:01.752Z,98773.20
2018-03-06T19:07:36.645Z,98779.00
2018-03-06T19:10:12.343Z,98774.08
2018-03-06T19:12:46.815Z,98776.71
2018-03-06T19:15:22.267Z,98777.45
2018-03-06T19:17:57.825Z,98779.14
2018-03-06T19:20:33.388Z,98777.31
2018-03-06T19:23:08.397Z,98782.48
2018-03-06T19:25:43.067Z,98778.95
2018-03-06T19:28:18.744Z,98771.09
2018-03-06T19:30:53.892Z,98772.91
2018-03-06T19:33:28.942Z,98779.73
2018-03-06T19:36:03.635Z,98775.13
2018-03-06T19:38:38.377Z,98788.63
2018-03-06T19:41:13.681Z,98786.63
2018-03-06T19:43:48.418Z,98790.03
2018-03-06T19:46:23.656Z,98786.24
2018-03-06T19:48:58.676Z,98788.09
2018-03-06T19:51:33.858Z,98784.09
2018-03-06T19:54:08.843Z,98782.89
2018-03-06T19:56:44.309Z,98782.30
2018-03-06T19:59:19.546Z,98780.82
2018-03-06T20:01:54.618Z,98781.55
2018-03-06T20:04:29.022Z,98782.08
2018-03-06T20:07:04.770Z,98784.46
2018-03-06T20:09:40.062Z,98787.38
2018-03-06T20:12:15.055Z,98787.84
2018-03-06T20:14:55.884Z,98786.59
2018-03-06T20:17:30.241Z,98788.82
2018-03-06T20:20:05.543Z,98785.94
2018-03-06T20:22:40.604Z,98789.05
2018-03-06T20:25:21.123Z,98791.92
2018-03-06T20:27:55.646Z,98809.20
2018-03-06T20:30:36.215Z,98807.03
2018-03-06T20:33:16.591Z,98807.20
2018-03-06T20:35:51.490Z,98805.37
2018-03-06T20:38:31.941Z,98804.70
2018-03-06T20:41:07.602Z,98808.70
2018-03-06T20:43:42.328Z,98804.10
2018-03-06T20:46:23.177Z,98814.91
2018-03-06T20:48:57.914Z,98810.33
2018-03-06T20:51:33.122Z,98809.53
2018-03-06T20:54:13.406Z,98804.39
2018-03-06T20:56:48.060Z,98804.08
2018-03-06T20:59:22.544Z,98801.09
2018-03-06T21:01:57.782Z,98798.56
2018-03-06T21:04:33.410Z,98799.68
2018-03-06T21:07:08.682Z,98799.17
2018-03-06T21:09:43.690Z,98801.34
2018-03-06T21:12:18.786Z,98797.02
2018-03-06T21:14:53.635Z,98795.14
2018-03-06T21:17:28.800Z,98792.41
2018-03-06T21:20:03.903Z,98786.92
2018-03-06T21:22:39.068Z,98789.02
2018-03-06T21:25:13.847Z,98793.02
2018-03-06T21:27:48.890Z,98789.05
2018-03-06T21:30:23.763Z,98790.34
2018-03-06T21:32:58.798Z,98793.52
2018-03-06T21:35:33.654Z,98798.48
2018-03-06T21:38:08.875Z,98790.95
2018-03-06T21:40:43.634Z,98795.34
2018-03-06T21:43:18.760Z,98787.23
2018-03-06T21:45:53.199Z,98787.86
2018-03-06T21:48:28.186Z,98785.98
2018-03-06T21:51:03.495Z,98794.17
2018-03-06T21:53:38.771Z,98790.56
2018-03-06T21:56:13.895Z,98789.63
2018-03-06T21:58:48.868Z,98795.53
2018-03-06T22:01:23.911Z,98796.76
2018-03-06T22:03:58.250Z,98794.77
2018-03-06T22:06:32.822Z,98787.55
2018-03-06T22:09:07.787Z,98787.26
2018-03-06T22:11:43.162Z,98792.26
2018-03-06T22:14:18.626Z,98793.16
2018-03-06T22:16:53.762Z,98796.71
2018-03-06T22:19:28.720Z,98802.43
2018-03-06T22:22:04.205Z,98808.19
2018-03-06T22:24:39.046Z,98800.66
2018-03-06T22:27:14.112Z,98800.31
2018-03-06T22:29:48.935Z,98803.00
2018-03-06T22:32:24.555Z,98797.13
2018-03-06T22:35:01.066Z,98796.94
2018-03-06T22:37:35.915Z,98802.19
2018-03-06T22:40:11.867Z,98797.31
2018-03-06T22:42:46.870Z,98798.45
2018-03-06T22:45:21.931Z,98795.88
2018-03-06T22:47:56.744Z,98793.41
2018-03-06T22:50:31.879Z,98806.20
2018-03-06T22:53:07.120Z,98802.80
2018-03-06T22:55:42.150Z,98806.67
2018-03-06T22:58:16.754Z,98800.69
2018-03-06T23:00:52.606Z,98804.69
2018-03-06T23:03:27.979Z,98802.66
2018-03-06T23:06:02.851Z,98799.88
2018-03-06T23:08:37.837Z,98801.65
2018-03-06T23:11:14.043Z,98799.00
2018-03-06T23:13:49.000Z,98804.77
2018-03-06T23:16:23.795Z,98804.77
2018-03-06T23:18:58.243Z,98801.73
2018-03-06T23:21:33.386Z,98807.36
2018-03-06T23:24:08.214Z,98812.25
2018-03-06T23:26:43.758Z,98811.13
2018-03-06T23:29:19.121Z,98812.82
2018-03-06T23:31:54.222Z,98807.34
2018-03-06T23:34:29.047Z,98814.16
2018-03-06T23:37:04.443Z,98808.67
2018-03-06T23:39:39.320Z,98823.84
2018-03-06T23:42:14.492Z,98821.75
2018-03-06T23:44:49.698Z,98818.80
2018-03-06T23:47:24.221Z,98820.35
2018-03-06T23:49:59.398Z,98821.25
2018-03-06T23:52:34.861Z,98825.91
2018-03-06T23:55:10.239Z,98815.79
2018-03-06T23:57:45.214Z,98815.39
